createdAt,value
2023-01-29T00:02:46.679Z,-1.89
2023-01-29T00:05:49.753Z,-2.02
2023-01-29T00:08:52.698Z,-2.10
2023-01-29T00:11:55.573Z,-2.16
2023-01-29T00:14:58.566Z,-2.22
2023-01-29T00:18:01.482Z,-2.25
2023-01-29T00:21:04.494Z,-2.29
2023-01-29T00:24:07.582Z,-2.30
2023-01-29T00:27:11.212Z,-2.32
2023-01-29T00:30:16.532Z,-2.35
2023-01-29T00:33:19.516Z,-2.35
2023-01-29T00:36:23.396Z,-2.39
2023-01-29T00:39:31.380Z,-2.43
2023-01-29T00:42:58.041Z,-2.43
2023-01-29T00:46:01.155Z,-2.44
2023-01-29T00:49:06.072Z,-2.45
2023-01-29T00:52:24.259Z,-2.46
2023-01-29T00:55:27.345Z,-2.47
2023-01-29T00:58:34.293Z,-2.48
2023-01-29T01:01:55.718Z,-2.51
2023-01-29T01:04:59.075Z,-2.54
2023-01-29T01:08:02.154Z,-2.53
2023-01-29T01:11:06.938Z,-2.56
2023-01-29T01:14:09.834Z,-2.58
2023-01-29T01:17:12.809Z,-2.60
2023-01-29T01:20:16.182Z,-2.63
2023-01-29T01:23:20.257Z,-2.64
2023-01-29T01:26:23.346Z,-2.65
2023-01-29T01:29:26.257Z,-2.67
2023-01-29T01:32:29.216Z,-2.69
2023-01-29T01:35:32.110Z,-2.68
2023-01-29T01:38:36.490Z,-2.69
2023-01-29T01:41:39.419Z,-2.70
2023-01-29T01:44:58.812Z,-2.72
2023-01-29T01:48:09.143Z,-2.73
2023-01-29T01:51:12.448Z,-2.74
2023-01-29T01:54:21.366Z,-2.76
2023-01-29T01:57:26.439Z,-2.78
2023-01-29T02:00:29.467Z,-2.78
2023-01-29T02:03:56.407Z,-2.79
2023-01-29T02:07:21.612Z,-2.80
2023-01-29T02:10:24.762Z,-2.80
2023-01-29T02:13:27.694Z,-2.81
2023-01-29T02:16:30.911Z,-2.84
2023-01-29T02:19:52.698Z,-2.88
2023-01-29T02:22:56.325Z,-2.92
2023-01-29T02:26:20.720Z,-2.97
2023-01-29T02:29:28.937Z,-3.01
2023-01-29T02:32:54.455Z,-3.05
2023-01-29T02:36:13.334Z,-3.08
2023-01-29T02:39:34.219Z,-3.11
2023-01-29T02:43:02.313Z,-3.14
2023-01-29T02:46:17.704Z,-3.16
2023-01-29T02:49:47.355Z,-3.16
2023-01-29T02:53:06.491Z,-3.16
2023-01-29T02:56:37.142Z,-3.14
2023-01-29T02:59:46.329Z,-3.16
2023-01-29T03:02:59.435Z,-3.17
2023-01-29T03:06:07.716Z,-3.18
2023-01-29T03:09:24.682Z,-3.19
2023-01-29T03:12:36.929Z,-3.19
2023-01-29T03:15:47.483Z,-3.18
2023-01-29T03:18:57.089Z,-3.19
2023-01-29T03:22:04.334Z,-3.17
2023-01-29T03:25:28.839Z,-3.16
2023-01-29T03:28:51.935Z,-3.16
2023-01-29T03:32:08.546Z,-3.15
2023-01-29T03:35:21.102Z,-3.16
2023-01-29T03:38:29.698Z,-3.14
2023-01-29T03:41:38.080Z,-3.16
2023-01-29T03:45:12.410Z,-3.16
2023-01-29T03:48:40.189Z,-3.17
2023-01-29T03:51:55.823Z,-3.18
2023-01-29T03:55:20.542Z,-3.19
2023-01-29T03:58:29.789Z,-3.20
2023-01-29T04:01:41.965Z,-3.21
2023-01-29T04:04:50.278Z,-3.21
2023-01-29T04:08:00.887Z,-3.22
2023-01-29T04:11:12.084Z,-3.23
2023-01-29T04:14:15.559Z,-3.24
2023-01-29T04:17:23.786Z,-3.24
2023-01-29T04:20:27.091Z,-3.23
2023-01-29T04:23:29.927Z,-3.13
2023-01-29T04:26:58.176Z,-2.73
2023-01-29T04:30:05.493Z,-2.67
2023-01-29T04:33:21.911Z,-2.59
2023-01-29T04:36:49.435Z,-2.59
2023-01-29T04:40:04.415Z,-2.75
2023-01-29T04:43:14.435Z,-2.76
2023-01-29T04:46:23.493Z,-2.76
2023-01-29T04:49:38.576Z,-2.73
2023-01-29T04:53:04.518Z,-2.75
2023-01-29T04:56:21.726Z,-2.76
2023-01-29T04:59:36.215Z,-2.79
2023-01-29T05:02:41.717Z,-2.79
2023-01-29T05:05:48.214Z,-2.81
2023-01-29T05:08:51.774Z,-2.82
2023-01-29T05:11:56.015Z,-2.88
2023-01-29T05:15:02.163Z,-2.93
2023-01-29T05:18:09.232Z,-2.94
2023-01-29T05:21:12.320Z,-2.92
2023-01-29T05:24:21.895Z,-2.90
2023-01-29T05:27:53.275Z,-2.89
2023-01-29T05:30:57.438Z,-2.87
2023-01-29T05:34:00.404Z,-2.86
2023-01-29T05:37:03.326Z,-2.88
2023-01-29T05:40:08.895Z,-2.91
2023-01-29T05:43:23.910Z,-2.93
2023-01-29T05:46:26.829Z,-2.97
2023-01-29T05:49:29.737Z,-2.98
2023-01-29T05:52:32.761Z,-2.99
2023-01-29T05:55:35.732Z,-2.98
2023-01-29T05:58:38.801Z,-2.99
2023-01-29T06:01:41.940Z,-2.99
2023-01-29T06:04:44.872Z,-3.03
2023-01-29T06:07:47.839Z,-3.05
2023-01-29T06:10:50.708Z,-3.08
2023-01-29T06:13:53.933Z,-3.07
2023-01-29T06:16:56.809Z,-3.07
2023-01-29T06:19:59.703Z,-3.05
2023-01-29T06:23:02.829Z,-3.05
2023-01-29T06:26:08.094Z,-3.06
2023-01-29T06:29:10.998Z,-3.07
2023-01-29T06:32:14.041Z,-3.08
2023-01-29T06:35:16.985Z,-3.08
2023-01-29T06:38:19.927Z,-3.07
2023-01-29T06:41:25.584Z,-3.06
2023-01-29T06:44:28.915Z,-3.05
2023-01-29T06:47:31.961Z,-3.04
2023-01-29T06:50:34.905Z,-3.02
2023-01-29T06:53:38.979Z,-3.00
2023-01-29T06:56:41.912Z,-2.98
2023-01-29T06:59:44.887Z,-2.95
2023-01-29T07:02:51.044Z,-2.93
2023-01-29T07:05:53.947Z,-2.90
2023-01-29T07:08:56.988Z,-2.87
2023-01-29T07:11:59.831Z,-2.84
2023-01-29T07:15:02.877Z,-2.77
2023-01-29T07:18:12.254Z,-2.71
2023-01-29T07:21:15.396Z,-2.61
2023-01-29T07:24:19.260Z,-2.54
2023-01-29T07:27:22.197Z,-2.51
2023-01-29T07:30:25.123Z,-2.56
2023-01-29T07:33:28.037Z,-2.57
2023-01-29T07:36:31.046Z,-2.51
2023-01-29T07:39:34.020Z,-2.46
2023-01-29T07:42:42.276Z,-2.42
2023-01-29T07:45:45.276Z,-2.38
2023-01-29T07:48:48.194Z,-2.33
2023-01-29T07:51:51.082Z,-2.29
2023-01-29T07:54:54.201Z,-2.28
2023-01-29T07:58:02.301Z,-2.30
2023-01-29T08:01:07.778Z,-2.31
2023-01-29T08:04:10.911Z,-2.32
2023-01-29T08:07:14.077Z,-2.30
2023-01-29T08:10:17.573Z,-2.29
2023-01-29T08:13:20.827Z,-2.25
2023-01-29T08:16:23.839Z,-2.19
2023-01-29T08:19:26.722Z,-2.10
2023-01-29T08:22:29.586Z,-2.00
2023-01-29T08:25:33.308Z,-1.92
2023-01-29T08:28:38.716Z,-1.83
2023-01-29T08:31:41.708Z,-1.67
2023-01-29T08:34:44.660Z,-1.48
2023-01-29T08:37:59.535Z,-1.33
2023-01-29T08:41:02.585Z,-1.16
2023-01-29T08:44:05.715Z,-0.95
2023-01-29T08:47:08.612Z,-0.70
2023-01-29T08:50:11.839Z,-0.48
2023-01-29T08:53:14.716Z,-0.21
2023-01-29T08:56:17.671Z,-0.03
2023-01-29T08:59:22.965Z,0.09
2023-01-29T09:02:25.901Z,0.14
2023-01-29T09:05:29.267Z,0.25
2023-01-29T09:08:32.099Z,0.37
2023-01-29T09:11:34.926Z,0.50
2023-01-29T09:14:37.778Z,0.53
2023-01-29T09:17:41.221Z,0.50
2023-01-29T09:20:44.083Z,0.51
2023-01-29T09:23:46.982Z,0.63
2023-01-29T09:26:49.966Z,0.75
2023-01-29T09:29:52.870Z,0.84
2023-01-29T09:32:55.766Z,0.96
2023-01-29T09:35:58.634Z,1.07
2023-01-29T09:39:01.504Z,1.17
2023-01-29T09:42:20.976Z,1.22
2023-01-29T09:45:26.772Z,1.23
2023-01-29T09:48:33.680Z,1.28
2023-01-29T09:51:48.018Z,1.30
2023-01-29T09:55:00.238Z,1.25
2023-01-29T09:58:12.189Z,1.28
2023-01-29T10:01:40.818Z,1.36
2023-01-29T10:05:11.037Z,1.47
2023-01-29T10:08:29.069Z,1.47
2023-01-29T10:11:58.101Z,1.51
2023-01-29T10:15:25.189Z,1.55
2023-01-29T10:18:49.147Z,1.43
2023-01-29T10:22:29.592Z,1.38
2023-01-29T10:25:36.877Z,1.33
2023-01-29T10:28:47.711Z,1.41
2023-01-29T10:31:57.022Z,1.44
2023-01-29T10:35:22.092Z,1.54
2023-01-29T10:38:38.531Z,1.76
2023-01-29T10:41:47.584Z,1.90
2023-01-29T10:45:00.794Z,1.94
2023-01-29T10:48:44.245Z,2.03
2023-01-29T10:52:05.600Z,2.15
2023-01-29T10:55:27.522Z,2.18
2023-01-29T10:58:34.342Z,2.15
2023-01-29T11:01:37.347Z,2.07
2023-01-29T11:04:40.433Z,1.99
2023-01-29T11:07:43.795Z,1.89
2023-01-29T11:10:55.219Z,1.83
2023-01-29T11:14:07.168Z,1.84
2023-01-29T11:17:22.984Z,1.79
2023-01-29T11:20:28.088Z,1.76
2023-01-29T11:23:33.339Z,1.73
2023-01-29T11:26:40.735Z,1.70
2023-01-29T11:29:46.285Z,1.64
2023-01-29T11:32:56.912Z,1.56
2023-01-29T11:36:01.067Z,1.56
2023-01-29T11:39:20.776Z,1.55
2023-01-29T11:42:24.018Z,1.57
2023-01-29T11:45:32.359Z,1.64
2023-01-29T11:48:50.339Z,1.72
2023-01-29T11:51:56.291Z,1.79
2023-01-29T11:55:03.841Z,1.93
2023-01-29T11:58:12.628Z,2.04
2023-01-29T12:01:19.242Z,2.07
2023-01-29T12:04:26.245Z,2.04
2023-01-29T12:07:30.642Z,2.15
2023-01-29T12:10:39.114Z,2.42
2023-01-29T12:13:45.723Z,2.66
2023-01-29T12:16:54.576Z,2.71
2023-01-29T12:20:06.842Z,2.52
2023-01-29T12:23:42.109Z,2.29
2023-01-29T12:26:52.036Z,2.23
2023-01-29T12:30:17.859Z,2.24
2023-01-29T12:33:20.838Z,2.16
2023-01-29T12:36:47.227Z,2.08
2023-01-29T12:39:52.171Z,1.99
2023-01-29T12:43:02.808Z,1.87
2023-01-29T12:46:14.436Z,1.72
2023-01-29T12:49:33.313Z,1.59
2023-01-29T12:52:47.686Z,1.49
2023-01-29T12:56:00.105Z,1.44
2023-01-29T12:59:09.871Z,1.39
2023-01-29T13:02:27.334Z,1.44
2023-01-29T13:05:36.305Z,1.32
2023-01-29T13:08:45.341Z,1.10
2023-01-29T13:12:00.744Z,0.89
2023-01-29T13:15:29.393Z,0.71
2023-01-29T13:18:54.113Z,0.71
2023-01-29T13:22:01.304Z,0.76
2023-01-29T13:25:05.772Z,0.73
2023-01-29T13:28:18.909Z,0.67
2023-01-29T13:31:31.853Z,0.62
2023-01-29T13:34:43.637Z,0.52
2023-01-29T13:37:53.947Z,0.42
2023-01-29T13:41:03.223Z,0.33
2023-01-29T13:44:09.642Z,0.27
2023-01-29T13:47:22.402Z,0.24
2023-01-29T13:50:35.037Z,0.20
2023-01-29T13:53:40.381Z,0.16
2023-01-29T13:56:49.994Z,0.13
2023-01-29T13:59:55.427Z,0.00
2023-01-29T14:03:13.459Z,-0.07
2023-01-29T14:06:41.940Z,-0.14
2023-01-29T14:09:44.784Z,-0.21
2023-01-29T14:12:49.949Z,-0.28
2023-01-29T14:15:58.834Z,-0.36
2023-01-29T14:19:04.360Z,-0.43
2023-01-29T14:22:07.344Z,-0.49
2023-01-29T14:25:19.518Z,-0.54
2023-01-29T14:28:52.524Z,-0.62
2023-01-29T14:32:00.939Z,-0.73
2023-01-29T14:35:18.160Z,-0.83
2023-01-29T14:38:24.992Z,-0.93
2023-01-29T14:41:34.240Z,-1.04
2023-01-29T14:44:47.170Z,-1.14
2023-01-29T14:47:50.029Z,-1.24
2023-01-29T14:50:59.275Z,-1.33
2023-01-29T14:54:12.124Z,-1.41
2023-01-29T14:57:18.204Z,-1.50
2023-01-29T15:00:29.372Z,-1.58
2023-01-29T15:03:52.638Z,-1.67
2023-01-29T15:07:11.421Z,-1.76
2023-01-29T15:10:23.475Z,-1.86
2023-01-29T15:13:53.988Z,-1.96
2023-01-29T15:17:09.610Z,-2.08
2023-01-29T15:20:41.656Z,-2.20
2023-01-29T15:23:46.022Z,-2.32
2023-01-29T15:26:49.095Z,-2.44
2023-01-29T15:30:02.368Z,-2.56
2023-01-29T15:33:10.605Z,-2.68
2023-01-29T15:36:30.802Z,-2.80
2023-01-29T15:39:43.851Z,-2.94
2023-01-29T15:42:48.836Z,-3.05
2023-01-29T15:45:53.922Z,-3.15
2023-01-29T15:48:59.892Z,-3.24
2023-01-29T15:52:07.224Z,-3.33
2023-01-29T15:55:23.462Z,-3.39
2023-01-29T15:58:32.419Z,-3.45
2023-01-29T16:01:35.655Z,-3.51
2023-01-29T16:04:38.813Z,-3.56
2023-01-29T16:07:42.712Z,-3.62
2023-01-29T16:10:53.865Z,-3.67
2023-01-29T16:13:57.643Z,-3.71
2023-01-29T16:17:27.712Z,-3.75
2023-01-29T16:20:45.239Z,-3.82
2023-01-29T16:23:56.996Z,-3.88
2023-01-29T16:27:06.515Z,-3.93
2023-01-29T16:30:14.689Z,-3.99
2023-01-29T16:33:18.011Z,-3.99
2023-01-29T16:36:24.746Z,-3.58
2023-01-29T16:39:34.999Z,-2.41
2023-01-29T16:42:38.660Z,-2.31
2023-01-29T16:45:41.716Z,-2.51
2023-01-29T16:48:44.803Z,-2.54
2023-01-29T16:51:47.860Z,-2.52
2023-01-29T16:54:58.601Z,-2.55
2023-01-29T16:58:13.211Z,-2.57
2023-01-29T17:01:17.370Z,-2.63
2023-01-29T17:04:21.221Z,-2.73
2023-01-29T17:07:25.770Z,-2.94
2023-01-29T17:10:31.194Z,-2.97
2023-01-29T17:13:45.499Z,-2.96
2023-01-29T17:17:15.715Z,-3.04
2023-01-29T17:20:18.880Z,-3.19
2023-01-29T17:23:22.769Z,-3.16
2023-01-29T17:26:26.067Z,-3.03
2023-01-29T17:29:31.555Z,-2.99
2023-01-29T17:32:44.128Z,-3.05
2023-01-29T17:35:51.722Z,-3.13
2023-01-29T17:38:55.082Z,-2.92
2023-01-29T17:41:59.299Z,-2.62
2023-01-29T17:45:02.370Z,-2.99
2023-01-29T17:48:11.883Z,-3.23
2023-01-29T17:51:17.478Z,-3.57
2023-01-29T17:54:21.791Z,-3.81
2023-01-29T17:57:25.805Z,-3.94
2023-01-29T18:00:30.116Z,-3.91
2023-01-29T18:03:33.351Z,-3.89
2023-01-29T18:06:37.208Z,-3.97
2023-01-29T18:09:43.277Z,-4.06
2023-01-29T18:12:46.953Z,-4.10
2023-01-29T18:15:50.901Z,-4.11
2023-01-29T18:18:54.049Z,-4.09
2023-01-29T18:21:57.301Z,-4.05
2023-01-29T18:25:00.243Z,-4.01
2023-01-29T18:28:05.518Z,-3.97
2023-01-29T18:31:09.789Z,-3.92
2023-01-29T18:34:13.557Z,-3.87
2023-01-29T18:37:17.108Z,-3.82
2023-01-29T18:40:20.517Z,-3.75
2023-01-29T18:43:26.234Z,-3.68
2023-01-29T18:46:30.904Z,-3.60
2023-01-29T18:49:34.343Z,-3.49
2023-01-29T18:52:37.834Z,-3.40
2023-01-29T18:55:42.404Z,-3.34
2023-01-29T18:58:52.143Z,-3.30
2023-01-29T19:01:58.561Z,-3.21
2023-01-29T19:05:02.184Z,-3.15
2023-01-29T19:08:05.966Z,-3.11
2023-01-29T19:11:12.529Z,-3.08
2023-01-29T19:14:15.965Z,-3.05
2023-01-29T19:17:19.031Z,-3.01
2023-01-29T19:20:22.557Z,-2.97
2023-01-29T19:23:25.725Z,-2.95
2023-01-29T19:26:29.095Z,-2.93
2023-01-29T19:29:32.995Z,-2.91
2023-01-29T19:32:36.065Z,-2.90
2023-01-29T19:35:39.165Z,-2.89
2023-01-29T19:38:42.433Z,-2.88
2023-01-29T19:41:45.373Z,-2.86
2023-01-29T19:44:49.152Z,-2.86
2023-01-29T19:47:54.430Z,-2.89
2023-01-29T19:51:10.522Z,-2.96
2023-01-29T19:54:13.560Z,-3.04
2023-01-29T19:57:16.443Z,-3.12
2023-01-29T20:00:21.694Z,-3.20
2023-01-29T20:03:25.856Z,-3.26
2023-01-29T20:06:32.827Z,-3.31
2023-01-29T20:09:35.797Z,-3.32
2023-01-29T20:12:38.795Z,-3.33
2023-01-29T20:15:49.778Z,-3.33
2023-01-29T20:18:53.146Z,-3.32
2023-01-29T20:21:56.340Z,-3.29
2023-01-29T20:24:59.753Z,-3.26
2023-01-29T20:28:03.404Z,-3.25
2023-01-29T20:31:08.086Z,-3.26
2023-01-29T20:34:11.377Z,-3.25
2023-01-29T20:37:14.389Z,-3.26
2023-01-29T20:40:18.657Z,-3.29
2023-01-29T20:43:22.225Z,-3.34
2023-01-29T20:46:27.483Z,-3.40
2023-01-29T20:49:30.535Z,-3.46
2023-01-29T20:52:33.839Z,-3.52
2023-01-29T20:55:37.315Z,-3.55
2023-01-29T20:58:43.946Z,-3.58
2023-01-29T21:01:47.152Z,-3.57
2023-01-29T21:04:50.180Z,-3.53
2023-01-29T21:07:53.056Z,-3.48
2023-01-29T21:10:56.271Z,-3.42
2023-01-29T21:13:59.357Z,-3.37
2023-01-29T21:17:02.899Z,-3.30
2023-01-29T21:20:08.401Z,-3.23
2023-01-29T21:23:11.920Z,-3.18
2023-01-29T21:26:14.863Z,-3.14
2023-01-29T21:29:17.942Z,-3.10
2023-01-29T21:32:21.082Z,-3.06
2023-01-29T21:35:23.974Z,-3.02
2023-01-29T21:38:27.638Z,-2.99
2023-01-29T21:41:50.859Z,-2.96
2023-01-29T21:44:53.805Z,-2.92
2023-01-29T21:47:56.821Z,-2.87
2023-01-29T21:50:59.914Z,-2.83
2023-01-29T21:54:03.595Z,-2.80
2023-01-29T21:57:11.169Z,-2.77
2023-01-29T22:00:14.578Z,-2.73
2023-01-29T22:03:17.702Z,-2.70
2023-01-29T22:06:20.958Z,-2.67
2023-01-29T22:09:24.017Z,-2.65
2023-01-29T22:12:27.568Z,-2.62
2023-01-29T22:15:30.504Z,-2.60
2023-01-29T22:18:34.120Z,-2.57
2023-01-29T22:21:37.093Z,-2.56
2023-01-29T22:24:40.142Z,-2.54
2023-01-29T22:27:42.968Z,-2.53
2023-01-29T22:30:46.471Z,-2.53
2023-01-29T22:33:49.465Z,-2.52
2023-01-29T22:36:52.896Z,-2.51
2023-01-29T22:39:55.778Z,-2.51
2023-01-29T22:42:58.830Z,-2.52
2023-01-29T22:46:02.053Z,-2.53
2023-01-29T22:49:05.242Z,-2.54
2023-01-29T22:52:11.420Z,-2.58
2023-01-29T22:55:14.273Z,-2.63
2023-01-29T22:58:17.496Z,-2.68
2023-01-29T23:01:22.097Z,-2.76
2023-01-29T23:04:25.177Z,-2.83
2023-01-29T23:07:28.087Z,-2.90
2023-01-29T23:10:30.984Z,-3.00
2023-01-29T23:13:34.035Z,-3.09
2023-01-29T23:16:36.908Z,-3.16
2023-01-29T23:19:39.792Z,-3.23
2023-01-29T23:22:42.828Z,-3.30
2023-01-29T23:26:04.424Z,-3.38
2023-01-29T23:29:07.419Z,-3.45
2023-01-29T23:32:11.812Z,-3.54
2023-01-29T23:35:14.623Z,-3.62
2023-01-29T23:38:17.537Z,-3.69
2023-01-29T23:41:21.402Z,-3.76
2023-01-29T23:44:24.380Z,-3.85
2023-01-29T23:47:27.319Z,-3.97
2023-01-29T23:50:30.122Z,-4.07
2023-01-29T23:53:33.036Z,-4.18
2023-01-29T23:56:35.893Z,-4.27
2023-01-29T23:59:38.904Z,-4.36
